createdAt,value
2022-11-16T00:02:23.410Z,52.73
2022-11-16T00:04:50.966Z,52.72
2022-11-16T00:07:18.646Z,51.98
2022-11-16T00:09:46.262Z,52.50
2022-11-16T00:12:13.888Z,53.32
2022-11-16T00:14:41.421Z,53.95
2022-11-16T00:17:08.794Z,53.37
2022-11-16T00:19:36.415Z,53.54
2022-11-16T00:22:03.930Z,52.38
2022-11-16T00:24:31.450Z,52.09
2022-11-16T00:26:58.990Z,51.81
2022-11-16T00:29:27.401Z,51.54
2022-11-16T00:31:54.850Z,52.10
2022-11-16T00:34:23.505Z,51.59
2022-11-16T00:36:51.153Z,51.80
2022-11-16T00:39:19.902Z,51.94
2022-11-16T00:41:48.376Z,51.23
2022-11-16T00:44:16.213Z,51.74
2022-11-16T00:46:43.872Z,51.82
2022-11-16T00:49:11.604Z,51.93
2022-11-16T00:51:39.242Z,52.00
2022-11-16T00:54:09.230Z,52.00
2022-11-16T00:56:38.156Z,51.73
2022-11-16T00:59:07.066Z,51.76
2022-11-16T01:01:34.934Z,52.26
2022-11-16T01:04:03.475Z,52.03
2022-11-16T01:06:31.057Z,52.62
2022-11-16T01:09:01.091Z,51.86
2022-11-16T01:11:46.990Z,52.63
2022-11-16T01:14:14.972Z,52.32
2022-11-16T01:16:43.927Z,52.70
2022-11-16T01:19:11.525Z,52.45
2022-11-16T01:21:38.868Z,52.63
2022-11-16T01:24:06.783Z,53.29
2022-11-16T01:26:34.261Z,53.24
2022-11-16T01:29:01.774Z,53.03
2022-11-16T01:31:33.456Z,53.15
2022-11-16T01:34:03.491Z,53.37
2022-11-16T01:36:30.972Z,53.64
2022-11-16T01:39:10.357Z,53.84
2022-11-16T01:41:47.156Z,53.90
2022-11-16T01:44:15.684Z,53.42
2022-11-16T01:46:55.132Z,53.21
2022-11-16T01:49:25.837Z,53.34
2022-11-16T01:51:59.885Z,53.55
2022-11-16T01:54:31.337Z,54.53
2022-11-16T01:57:07.546Z,53.72
2022-11-16T01:59:50.303Z,53.71
2022-11-16T02:02:26.486Z,53.96
2022-11-16T02:04:55.870Z,53.59
2022-11-16T02:08:37.785Z,53.75
2022-11-16T02:11:23.050Z,54.36
2022-11-16T02:14:16.689Z,53.30
2022-11-16T02:16:56.853Z,53.84
2022-11-16T02:20:01.128Z,54.17
2022-11-16T02:22:54.096Z,54.26
2022-11-16T02:25:45.765Z,53.73
2022-11-16T02:29:10.094Z,53.81
2022-11-16T02:31:42.692Z,54.24
2022-11-16T02:34:12.810Z,54.13
2022-11-16T02:36:42.537Z,53.88
2022-11-16T02:39:16.943Z,53.85
2022-11-16T02:41:49.465Z,54.28
2022-11-16T02:47:27.562Z,55.50
2022-11-16T02:50:09.689Z,55.58
2022-11-16T02:52:46.907Z,56.26
2022-11-16T02:55:14.726Z,56.67
2022-11-16T02:58:01.371Z,55.52
2022-11-16T03:00:47.080Z,54.85
2022-11-16T03:03:19.690Z,55.10
2022-11-16T03:05:58.614Z,55.28
2022-11-16T03:08:33.159Z,54.65
2022-11-16T03:11:30.598Z,54.81
2022-11-16T03:14:15.048Z,54.78
2022-11-16T03:16:49.447Z,54.27
2022-11-16T03:19:25.990Z,54.68
2022-11-16T03:22:01.620Z,54.46
2022-11-16T03:24:29.985Z,55.41
2022-11-16T03:27:10.406Z,54.97
2022-11-16T03:30:04.923Z,54.78
2022-11-16T03:32:55.657Z,54.48
2022-11-16T03:35:30.981Z,54.26
2022-11-16T03:38:02.111Z,54.59
2022-11-16T03:40:34.877Z,54.71
2022-11-16T03:43:06.962Z,54.42
2022-11-16T03:45:36.598Z,54.47
2022-11-16T03:48:07.663Z,54.34
2022-11-16T03:50:49.428Z,54.60
2022-11-16T03:53:17.885Z,53.98
2022-11-16T03:55:49.571Z,53.87
2022-11-16T03:58:18.845Z,54.44
2022-11-16T04:00:47.046Z,54.12
2022-11-16T04:03:15.171Z,54.40
2022-11-16T04:06:02.542Z,54.37
2022-11-16T04:08:48.436Z,54.47
2022-11-16T04:11:40.152Z,54.88
2022-11-16T04:14:40.073Z,54.35
2022-11-16T04:17:33.985Z,53.72
2022-11-16T04:20:20.841Z,53.91
2022-11-16T04:23:27.705Z,53.63
2022-11-16T04:25:56.180Z,53.14
2022-11-16T04:28:31.711Z,53.56
2022-11-16T04:31:22.758Z,53.71
2022-11-16T04:34:16.386Z,53.44
2022-11-16T04:37:08.024Z,53.10
2022-11-16T04:39:36.181Z,53.38
2022-11-16T04:42:26.678Z,53.63
2022-11-16T04:45:18.389Z,53.64
2022-11-16T04:47:51.594Z,53.54
2022-11-16T04:50:21.839Z,53.59
2022-11-16T04:52:52.777Z,53.08
2022-11-16T04:55:21.479Z,52.95
2022-11-16T04:57:51.033Z,53.15
2022-11-16T05:00:19.907Z,53.29
2022-11-16T05:02:48.301Z,53.03
2022-11-16T05:05:17.960Z,52.87
2022-11-16T05:07:49.028Z,53.22
2022-11-16T05:10:23.334Z,52.66
2022-11-16T05:12:53.117Z,52.35
2022-11-16T05:15:20.806Z,52.25
2022-11-16T05:17:49.499Z,52.62
2022-11-16T05:20:39.338Z,52.76
2022-11-16T05:23:29.115Z,53.33
2022-11-16T05:26:00.322Z,52.40
2022-11-16T05:28:29.977Z,51.96
2022-11-16T05:30:58.696Z,51.86
2022-11-16T05:33:29.218Z,51.88
2022-11-16T05:35:57.270Z,52.05
2022-11-16T05:38:26.055Z,51.45
2022-11-16T05:41:00.370Z,50.70
2022-11-16T05:43:32.001Z,51.87
2022-11-16T05:46:08.731Z,51.68
2022-11-16T05:48:38.621Z,52.13
2022-11-16T05:51:07.557Z,51.72
2022-11-16T05:53:36.866Z,51.42
2022-11-16T05:56:07.834Z,52.26
2022-11-16T05:58:40.388Z,52.07
2022-11-16T06:01:09.284Z,52.16
2022-11-16T06:03:39.038Z,51.84
2022-11-16T06:06:09.819Z,51.66
2022-11-16T06:08:38.559Z,51.36
2022-11-16T06:11:12.194Z,51.55
2022-11-16T06:13:40.863Z,51.02
2022-11-16T06:16:09.241Z,51.19
2022-11-16T06:18:43.541Z,50.84
2022-11-16T06:21:12.849Z,50.90
2022-11-16T06:23:42.842Z,51.11
2022-11-16T06:28:59.633Z,49.96
2022-11-16T06:31:29.630Z,50.50
2022-11-16T06:34:00.486Z,50.13
2022-11-16T06:36:30.002Z,49.46
2022-11-16T06:39:02.515Z,49.26
2022-11-16T06:41:41.335Z,48.78
2022-11-16T06:44:16.517Z,48.53
2022-11-16T06:46:57.144Z,48.39
2022-11-16T06:49:31.085Z,47.93
2022-11-16T06:52:04.376Z,47.92
2022-11-16T06:54:41.850Z,47.74
2022-11-16T06:57:10.039Z,47.87
2022-11-16T06:59:45.042Z,48.16
2022-11-16T07:02:13.865Z,47.76
2022-11-16T07:04:43.095Z,47.33
2022-11-16T07:07:13.586Z,47.47
2022-11-16T07:09:41.864Z,48.43
2022-11-16T07:12:10.890Z,48.06
2022-11-16T07:14:45.860Z,47.74
2022-11-16T07:17:18.827Z,47.31
2022-11-16T07:19:51.354Z,47.60
2022-11-16T07:22:29.399Z,46.82
2022-11-16T07:24:59.775Z,46.94
2022-11-16T07:27:28.270Z,46.71
2022-11-16T07:29:58.071Z,46.29
2022-11-16T07:32:51.083Z,45.92
2022-11-16T07:35:27.794Z,46.00
2022-11-16T07:37:56.368Z,45.97
2022-11-16T07:40:27.585Z,46.14
2022-11-16T07:42:59.112Z,46.31
2022-11-16T07:49:07.043Z,45.29
2022-11-16T07:52:04.288Z,45.67
2022-11-16T07:54:40.855Z,45.70
2022-11-16T07:57:09.399Z,45.35
2022-11-16T07:59:37.592Z,45.25
2022-11-16T08:02:06.145Z,45.03
2022-11-16T08:04:35.063Z,44.53
2022-11-16T08:07:04.022Z,44.90
2022-11-16T08:09:39.738Z,44.71
2022-11-16T08:12:13.476Z,44.29
2022-11-16T08:14:41.722Z,44.30
2022-11-16T08:19:56.990Z,44.18
2022-11-16T08:22:25.092Z,43.41
2022-11-16T08:24:54.642Z,44.24
2022-11-16T08:27:26.154Z,43.07
2022-11-16T08:30:00.628Z,43.26
2022-11-16T08:32:31.897Z,43.24
2022-11-16T08:35:40.172Z,43.20
2022-11-16T08:38:08.437Z,42.97
2022-11-16T08:40:37.741Z,43.00
2022-11-16T08:43:06.189Z,43.04
2022-11-16T08:45:34.515Z,42.50
2022-11-16T08:48:04.341Z,42.69
2022-11-16T08:53:21.410Z,42.43
2022-11-16T08:55:49.216Z,42.26
2022-11-16T08:58:17.377Z,42.22
2022-11-16T09:00:45.606Z,43.21
2022-11-16T09:03:13.656Z,42.84
2022-11-16T09:05:43.346Z,42.79
2022-11-16T09:08:12.031Z,42.39
2022-11-16T09:10:42.096Z,42.06
2022-11-16T09:13:10.683Z,42.50
2022-11-16T09:15:42.583Z,42.83
2022-11-16T09:18:10.778Z,42.43
2022-11-16T09:20:44.425Z,42.24
2022-11-16T09:23:14.727Z,41.77
2022-11-16T09:25:49.236Z,41.44
2022-11-16T09:28:19.974Z,41.09
2022-11-16T09:30:51.283Z,41.15
2022-11-16T09:33:20.089Z,41.17
2022-11-16T09:35:49.613Z,40.98
2022-11-16T09:38:27.005Z,41.41
2022-11-16T09:41:54.286Z,41.13
2022-11-16T09:44:58.620Z,40.69
2022-11-16T09:47:51.843Z,40.62
2022-11-16T09:50:59.819Z,40.82
2022-11-16T09:53:46.977Z,40.34
2022-11-16T09:56:46.500Z,39.84
2022-11-16T09:59:25.126Z,39.72
2022-11-16T10:02:10.490Z,39.90
2022-11-16T10:04:58.253Z,39.73
2022-11-16T10:07:51.017Z,40.40
2022-11-16T10:11:03.445Z,40.21
2022-11-16T10:14:07.521Z,40.03
2022-11-16T10:17:07.959Z,40.61
2022-11-16T10:19:59.250Z,40.54
2022-11-16T10:23:10.744Z,40.20
2022-11-16T10:25:45.668Z,40.65
2022-11-16T10:28:25.371Z,40.78
2022-11-16T10:31:25.292Z,41.02
2022-11-16T10:34:11.649Z,40.56
2022-11-16T10:36:42.444Z,41.00
2022-11-16T10:39:18.725Z,40.99
2022-11-16T10:41:54.289Z,40.72
2022-11-16T10:44:43.193Z,40.83
2022-11-16T10:47:40.738Z,40.68
2022-11-16T10:51:04.380Z,40.11
2022-11-16T10:53:39.832Z,40.32
2022-11-16T10:56:17.585Z,39.99
2022-11-16T10:58:57.802Z,40.16
2022-11-16T11:01:52.110Z,40.30
2022-11-16T11:04:28.670Z,40.93
2022-11-16T11:07:22.668Z,40.29
2022-11-16T11:09:54.094Z,40.27
2022-11-16T11:12:39.656Z,40.92
2022-11-16T11:18:21.337Z,40.75
2022-11-16T11:21:07.513Z,40.62
2022-11-16T11:23:48.307Z,40.37
2022-11-16T11:26:36.138Z,40.40
2022-11-16T11:29:30.138Z,40.58
2022-11-16T11:32:24.134Z,40.72
2022-11-16T11:34:54.958Z,41.18
2022-11-16T11:37:33.404Z,41.88
2022-11-16T11:40:36.158Z,42.10
2022-11-16T11:43:07.505Z,41.73
2022-11-16T11:45:47.130Z,42.35
2022-11-16T11:48:19.760Z,41.91
2022-11-16T11:51:01.341Z,42.37
2022-11-16T11:53:59.823Z,42.27
2022-11-16T11:56:30.514Z,42.45
2022-11-16T11:58:58.676Z,42.61
2022-11-16T12:01:32.233Z,42.43
2022-11-16T12:04:09.010Z,42.75
2022-11-16T12:06:42.607Z,42.68
2022-11-16T12:09:36.962Z,42.68
2022-11-16T12:12:46.074Z,42.31
2022-11-16T12:15:34.284Z,42.24
2022-11-16T12:18:11.071Z,41.94
2022-11-16T12:20:58.005Z,42.60
2022-11-16T12:23:32.891Z,43.06
2022-11-16T12:26:19.709Z,42.87
2022-11-16T12:29:03.988Z,43.35
2022-11-16T12:32:04.416Z,43.46
2022-11-16T12:34:58.292Z,43.18
2022-11-16T12:37:47.369Z,43.32
2022-11-16T12:43:38.650Z,42.91
2022-11-16T12:46:46.213Z,43.30
2022-11-16T12:49:26.877Z,43.12
2022-11-16T12:55:29.838Z,43.50
2022-11-16T12:58:03.337Z,43.25
2022-11-16T13:00:57.224Z,43.27
2022-11-16T13:03:32.291Z,44.27
2022-11-16T13:06:03.988Z,43.80
2022-11-16T13:08:49.542Z,43.81
2022-11-16T13:11:41.072Z,43.66
2022-11-16T13:14:18.772Z,43.99
2022-11-16T13:16:47.915Z,44.26
2022-11-16T13:19:17.559Z,44.32
2022-11-16T13:22:03.523Z,44.38
2022-11-16T13:24:35.678Z,44.03
2022-11-16T13:27:18.514Z,43.96
2022-11-16T13:30:02.529Z,44.19
2022-11-16T13:32:42.673Z,45.02
2022-11-16T13:35:19.049Z,44.64
2022-11-16T13:37:52.249Z,44.08
2022-11-16T13:40:26.618Z,44.84
2022-11-16T13:43:00.495Z,44.68
2022-11-16T13:45:51.281Z,44.55
2022-11-16T13:48:28.806Z,44.75
2022-11-16T13:50:59.113Z,45.33
2022-11-16T13:56:28.563Z,45.60
2022-11-16T13:58:58.866Z,45.47
2022-11-16T14:02:06.046Z,45.94
2022-11-16T14:04:36.632Z,45.87
2022-11-16T14:07:04.228Z,45.62
2022-11-16T14:09:46.262Z,47.04
2022-11-16T14:12:38.699Z,46.47
2022-11-16T14:15:25.666Z,46.58
2022-11-16T14:18:22.187Z,47.71
2022-11-16T14:21:09.297Z,46.97
2022-11-16T14:23:48.772Z,46.52
2022-11-16T14:26:37.726Z,46.91
2022-11-16T14:29:24.301Z,46.82
2022-11-16T14:31:57.333Z,47.22
2022-11-16T14:34:28.029Z,46.79
2022-11-16T14:36:55.876Z,47.63
2022-11-16T14:39:37.516Z,47.49
2022-11-16T14:42:38.224Z,47.79
2022-11-16T14:45:28.592Z,47.17
2022-11-16T14:48:05.015Z,48.00
2022-11-16T14:50:38.151Z,47.51
2022-11-16T14:53:14.151Z,47.42
2022-11-16T14:55:46.492Z,47.18
2022-11-16T14:58:20.643Z,47.23
2022-11-16T15:01:00.998Z,46.82
2022-11-16T15:03:53.825Z,47.21
2022-11-16T15:06:22.355Z,47.14
2022-11-16T15:08:54.884Z,46.97
2022-11-16T15:11:49.577Z,47.02
2022-11-16T15:14:27.114Z,46.88
2022-11-16T15:16:56.892Z,46.49
2022-11-16T15:19:25.059Z,46.92
2022-11-16T15:21:58.681Z,47.22
2022-11-16T15:24:30.975Z,47.50
2022-11-16T15:27:12.478Z,47.19
2022-11-16T15:29:40.196Z,46.87
2022-11-16T15:32:13.405Z,47.38
2022-11-16T15:34:41.100Z,47.49
2022-11-16T15:37:12.326Z,47.58
2022-11-16T15:39:40.268Z,47.73
2022-11-16T15:42:15.056Z,46.99
2022-11-16T15:44:43.840Z,47.31
2022-11-16T15:47:13.850Z,46.82
2022-11-16T15:49:43.809Z,47.18
2022-11-16T15:52:11.611Z,47.44
2022-11-16T15:54:57.453Z,47.08
2022-11-16T16:00:22.960Z,47.04
2022-11-16T16:02:52.381Z,46.82
2022-11-16T16:05:32.430Z,46.82
2022-11-16T16:08:00.251Z,47.25
2022-11-16T16:10:27.744Z,46.93
2022-11-16T16:13:00.549Z,47.95
2022-11-16T16:15:34.346Z,47.99
2022-11-16T16:18:04.184Z,47.26
2022-11-16T16:20:33.268Z,47.05
2022-11-16T16:23:13.681Z,47.65
2022-11-16T16:25:44.754Z,47.49
2022-11-16T16:28:15.018Z,47.93
2022-11-16T16:30:43.442Z,47.71
2022-11-16T16:33:19.759Z,47.57
2022-11-16T16:35:50.034Z,47.72
2022-11-16T16:38:17.501Z,47.34
2022-11-16T16:40:45.024Z,47.47
2022-11-16T16:43:12.537Z,47.66
2022-11-16T16:45:43.656Z,47.53
2022-11-16T16:48:14.202Z,47.86
2022-11-16T16:50:41.970Z,47.98
2022-11-16T16:53:13.056Z,47.79
2022-11-16T16:55:41.495Z,47.94
2022-11-16T16:58:12.455Z,48.37
2022-11-16T17:00:41.118Z,48.24
2022-11-16T17:03:09.045Z,48.42
2022-11-16T17:05:36.815Z,48.35
2022-11-16T17:08:04.512Z,48.21
2022-11-16T17:10:32.104Z,47.92
2022-11-16T17:13:02.845Z,47.89
2022-11-16T17:15:30.614Z,48.55
2022-11-16T17:17:59.199Z,48.34
2022-11-16T17:20:26.946Z,48.76
2022-11-16T17:22:54.418Z,48.38
2022-11-16T17:25:22.089Z,48.42
2022-11-16T17:27:49.571Z,48.56
2022-11-16T17:30:17.332Z,48.49
2022-11-16T17:32:44.792Z,49.09
2022-11-16T17:35:13.304Z,48.73
2022-11-16T17:37:40.685Z,50.01
2022-11-16T17:40:17.148Z,49.17
2022-11-16T17:42:44.833Z,49.43
2022-11-16T17:45:12.317Z,49.52
2022-11-16T17:47:39.985Z,49.23
2022-11-16T17:50:09.386Z,49.71
2022-11-16T17:52:36.970Z,49.64
2022-11-16T17:55:04.675Z,49.36
2022-11-16T17:57:32.360Z,49.67
2022-11-16T17:59:59.744Z,49.55
2022-11-16T18:02:27.366Z,49.90
2022-11-16T18:04:55.166Z,49.79
2022-11-16T18:07:23.414Z,50.35
2022-11-16T18:09:50.817Z,50.09
2022-11-16T18:12:18.783Z,50.46
2022-11-16T18:15:06.489Z,50.71
2022-11-16T18:17:35.219Z,50.48
2022-11-16T18:20:04.999Z,50.28
2022-11-16T18:22:32.460Z,50.35
2022-11-16T18:25:15.717Z,50.41
2022-11-16T18:30:29.576Z,50.38
2022-11-16T18:32:57.028Z,51.16
2022-11-16T18:35:24.477Z,50.90
2022-11-16T18:37:52.079Z,51.43
2022-11-16T18:40:19.648Z,51.11
2022-11-16T18:42:47.659Z,50.63
2022-11-16T18:45:15.203Z,51.79
2022-11-16T18:47:42.574Z,51.02
2022-11-16T18:50:19.061Z,51.89
2022-11-16T18:52:49.122Z,51.66
2022-11-16T18:55:16.460Z,51.45
2022-11-16T18:57:44.214Z,51.58
2022-11-16T19:00:12.466Z,51.27
2022-11-16T19:02:39.924Z,51.32
2022-11-16T19:05:07.911Z,51.52
2022-11-16T19:07:36.062Z,51.35
2022-11-16T19:10:03.622Z,51.61
2022-11-16T19:12:32.562Z,52.18
2022-11-16T19:15:00.019Z,52.29
2022-11-16T19:17:27.746Z,52.14
2022-11-16T19:19:55.161Z,51.51
2022-11-16T19:22:22.924Z,51.65
2022-11-16T19:24:50.341Z,51.82
2022-11-16T19:27:17.885Z,51.66
2022-11-16T19:29:45.353Z,51.97
2022-11-16T19:32:12.840Z,52.25
2022-11-16T19:34:40.187Z,52.29
2022-11-16T19:37:07.727Z,52.54
2022-11-16T19:39:35.194Z,52.37
2022-11-16T19:42:02.654Z,52.82
2022-11-16T19:44:30.085Z,52.07
2022-11-16T19:46:57.564Z,52.56
2022-11-16T19:52:06.553Z,52.87
2022-11-16T19:57:20.902Z,52.72
2022-11-16T19:59:48.268Z,53.04
2022-11-16T20:02:15.723Z,52.94
2022-11-16T20:07:38.296Z,53.39
2022-11-16T20:10:19.514Z,53.47
2022-11-16T20:12:46.840Z,53.58
2022-11-16T20:15:14.269Z,53.57
2022-11-16T20:17:41.743Z,53.42
2022-11-16T20:20:09.747Z,53.53
2022-11-16T20:22:37.271Z,53.46
2022-11-16T20:25:05.042Z,53.03
2022-11-16T20:27:32.452Z,53.80
2022-11-16T20:30:02.655Z,53.83
2022-11-16T20:32:32.648Z,53.21
2022-11-16T20:37:53.428Z,53.96
2022-11-16T20:40:20.823Z,53.87
2022-11-16T20:42:48.432Z,53.64
2022-11-16T20:45:15.869Z,53.86
2022-11-16T20:47:43.251Z,53.84
2022-11-16T20:50:10.692Z,53.37
2022-11-16T20:52:42.449Z,54.15
2022-11-16T20:55:11.440Z,53.72
2022-11-16T20:57:39.554Z,53.52
2022-11-16T21:00:07.577Z,53.97
2022-11-16T21:02:35.029Z,54.40
2022-11-16T21:05:02.535Z,54.06
2022-11-16T21:07:31.151Z,53.97
2022-11-16T21:10:16.877Z,53.99
2022-11-16T21:16:01.014Z,54.20
2022-11-16T21:18:30.847Z,54.67
2022-11-16T21:21:02.257Z,54.54
2022-11-16T21:23:32.108Z,54.70
2022-11-16T21:26:08.400Z,55.35
2022-11-16T21:28:36.010Z,55.83
2022-11-16T21:31:10.160Z,55.41
2022-11-16T21:33:38.038Z,54.89
2022-11-16T21:41:35.555Z,54.81
2022-11-16T21:44:03.207Z,54.70
2022-11-16T21:46:30.604Z,54.82
2022-11-16T21:48:58.314Z,55.17
2022-11-16T21:51:27.371Z,55.08
2022-11-16T21:53:55.719Z,55.10
2022-11-16T21:56:25.486Z,55.14
2022-11-16T21:58:54.230Z,56.15
2022-11-16T22:01:22.974Z,55.69
2022-11-16T22:04:10.862Z,55.47
2022-11-16T22:07:01.319Z,55.88
2022-11-16T22:09:28.822Z,56.27
2022-11-16T22:11:59.797Z,56.87
2022-11-16T22:14:30.307Z,55.89
2022-11-16T22:16:57.742Z,56.54
2022-11-16T22:19:25.186Z,57.38
2022-11-16T22:21:52.627Z,56.21
2022-11-16T22:24:20.545Z,56.16
2022-11-16T22:26:48.061Z,55.88
2022-11-16T22:29:15.514Z,55.62
2022-11-16T22:31:43.010Z,55.82
2022-11-16T22:34:10.550Z,55.72
2022-11-16T22:36:37.893Z,55.98
2022-11-16T22:39:05.531Z,56.66
2022-11-16T22:41:32.897Z,55.93
2022-11-16T22:44:00.452Z,56.13
2022-11-16T22:46:28.036Z,57.12
2022-11-16T22:48:55.529Z,56.69
2022-11-16T22:51:28.500Z,56.58
2022-11-16T22:53:58.338Z,56.69
2022-11-16T22:59:11.201Z,55.83
2022-11-16T23:01:38.710Z,55.79
2022-11-16T23:04:06.280Z,55.83
2022-11-16T23:06:33.781Z,55.61
2022-11-16T23:09:01.487Z,56.27
2022-11-16T23:11:47.375Z,55.52
2022-11-16T23:14:35.470Z,56.04
2022-11-16T23:17:04.137Z,55.66
2022-11-16T23:19:49.983Z,55.64
2022-11-16T23:22:38.524Z,56.04
2022-11-16T23:25:26.660Z,55.11
2022-11-16T23:28:16.703Z,55.59
2022-11-16T23:30:44.247Z,55.58
2022-11-16T23:33:11.993Z,55.93
2022-11-16T23:35:39.695Z,55.68
2022-11-16T23:38:07.910Z,55.76
2022-11-16T23:40:37.420Z,56.16
2022-11-16T23:43:24.714Z,55.62
2022-11-16T23:45:52.365Z,55.68
2022-11-16T23:48:19.769Z,56.04
2022-11-16T23:50:47.429Z,55.63
2022-11-16T23:53:14.997Z,55.95
2022-11-16T23:55:42.580Z,56.26
2022-11-16T23:58:14.611Z,55.95
